Sparwood, Canada
Current Conditions -  °F | °C
As of 8:00 AM on Monday 22 Dec 2014 (Local Time) from CYXC Reporting Station
Few Clouds Few Clouds  
Wind Chill: 21°   Ceiling: Unl
Heat Index: 21°   Visibility: 25mi
Dew Point: 18°   Wind: 2mph
Humidity: 86%   Direction: NA
Pressure: 29.89"   Gusts: NA
Location:  49.72°N, 114.89°W
Report Text: CYXC 221500Z VRB02KT 25SM FEW040 FEW080 M06/M08 A2989 RMK SC1AC1 FG OVR RIVER VLYS SLP162
Loading
Personal Weather Stations






























Interactive Weather Map New forecast layout! Learn more

10-Day Weather Forecast

Advertisements
Track Severe Weather on mobile